sensor_id;sensor_type;location;lat;lon;timestamp;pressure;altitude;pressure_sealevel;temperature;humidity
78444;BME280;67739;52.986;8.894;2023-08-20T00:02:08;102143.91;;;20.25;72.52
78444;BME280;67739;52.986;8.894;2023-08-20T00:04:36;102137.78;;;20.21;72.55
78444;BME280;67739;52.986;8.894;2023-08-20T00:07:02;102136.25;;;20.17;72.79
78444;BME280;67739;52.986;8.894;2023-08-20T00:09:28;102142.97;;;20.11;72.79
78444;BME280;67739;52.986;8.894;2023-08-20T00:11:54;102141.41;;;20.07;72.66
78444;BME280;67739;52.986;8.894;2023-08-20T00:14:19;102144.47;;;20.03;72.57
78444;BME280;67739;52.986;8.894;2023-08-20T00:16:46;102152.94;;;19.98;72.83
78444;BME280;67739;52.986;8.894;2023-08-20T00:19:11;102156.84;;;19.94;72.97
78444;BME280;67739;52.986;8.894;2023-08-20T00:21:41;102141.78;;;19.89;72.56
78444;BME280;67739;52.986;8.894;2023-08-20T00:24:07;102149.19;;;19.87;72.88
78444;BME280;67739;52.986;8.894;2023-08-20T00:26:33;102148.69;;;19.80;72.63
78444;BME280;67739;52.986;8.894;2023-08-20T00:28:58;102150.72;;;19.76;72.79
78444;BME280;67739;52.986;8.894;2023-08-20T00:31:24;102150.19;;;19.71;72.73
78444;BME280;67739;52.986;8.894;2023-08-20T00:33:49;102153.19;;;19.67;72.59
78444;BME280;67739;52.986;8.894;2023-08-20T00:36:15;102151.63;;;19.63;73.01
78444;BME280;67739;52.986;8.894;2023-08-20T00:38:40;102154.66;;;19.58;72.87
78444;BME280;67739;52.986;8.894;2023-08-20T00:41:05;102152.25;;;19.54;72.85
78444;BME280;67739;52.986;8.894;2023-08-20T00:43:31;102140.72;;;19.49;72.70
78444;BME280;67739;52.986;8.894;2023-08-20T00:45:58;102158.25;;;19.45;72.79
78444;BME280;67739;52.986;8.894;2023-08-20T00:48:25;102162.13;;;19.40;72.75
78444;BME280;67739;52.986;8.894;2023-08-20T00:50:51;102161.53;;;19.35;72.82
78444;BME280;67739;52.986;8.894;2023-08-20T00:53:17;102168.16;;;19.31;72.95
78444;BME280;67739;52.986;8.894;2023-08-20T00:55:42;102182.03;;;19.27;72.79
78444;BME280;67739;52.986;8.894;2023-08-20T00:58:11;102172.31;;;19.23;73.00
78444;BME280;67739;52.986;8.894;2023-08-20T01:00:37;102169.91;;;19.18;72.99
78444;BME280;67739;52.986;8.894;2023-08-20T01:03:03;102162.91;;;19.14;73.18
78444;BME280;67739;52.986;8.894;2023-08-20T01:05:32;102165.88;;;19.10;72.95
78444;BME280;67739;52.986;8.894;2023-08-20T01:10:43;102167.44;;;18.99;73.17
78444;BME280;67739;52.986;8.894;2023-08-20T01:13:14;102157.81;;;18.94;73.05
78444;BME280;67739;52.986;8.894;2023-08-20T01:15:40;102153.53;;;18.90;73.16
78444;BME280;67739;52.986;8.894;2023-08-20T01:18:05;102161.97;;;18.85;72.92
78444;BME280;67739;52.986;8.894;2023-08-20T01:20:35;102156.81;;;18.81;72.97
78444;BME280;67739;52.986;8.894;2023-08-20T01:28:28;102155.00;;;18.65;73.15
78444;BME280;67739;52.986;8.894;2023-08-20T01:30:56;102158.03;;;18.61;73.21
78444;BME280;67739;52.986;8.894;2023-08-20T01:33:22;102160.97;;;18.56;73.00
78444;BME280;67739;52.986;8.894;2023-08-20T01:35:49;102160.38;;;18.51;72.92
78444;BME280;67739;52.986;8.894;2023-08-20T01:38:15;102158.78;;;18.47;73.24
78444;BME280;67739;52.986;8.894;2023-08-20T01:40:40;102162.69;;;18.43;73.12
78444;BME280;67739;52.986;8.894;2023-08-20T01:43:05;102164.69;;;18.40;73.09
78444;BME280;67739;52.986;8.894;2023-08-20T01:45:31;102166.72;;;18.36;73.11
78444;BME280;67739;52.986;8.894;2023-08-20T01:47:56;102157.97;;;18.31;73.01
78444;BME280;67739;52.986;8.894;2023-08-20T01:50:21;102169.91;;;18.28;73.01
78444;BME280;67739;52.986;8.894;2023-08-20T01:52:46;102151.13;;;18.24;73.13
78444;BME280;67739;52.986;8.894;2023-08-20T01:55:12;102164.91;;;18.21;72.80
78444;BME280;67739;52.986;8.894;2023-08-20T01:57:37;102162.47;;;18.16;73.44
78444;BME280;67739;52.986;8.894;2023-08-20T02:00:03;102158.16;;;18.12;73.44
78444;BME280;67739;52.986;8.894;2023-08-20T02:02:30;102165.63;;;18.09;73.66
78444;BME280;67739;52.986;8.894;2023-08-20T02:04:56;102163.16;;;18.04;73.40
78444;BME280;67739;52.986;8.894;2023-08-20T02:07:21;102167.91;;;18.00;73.27
78444;BME280;67739;52.986;8.894;2023-08-20T02:09:46;102168.94;;;17.98;73.69
78444;BME280;67739;52.986;8.894;2023-08-20T02:12:12;102157.47;;;17.93;73.53
78444;BME280;67739;52.986;8.894;2023-08-20T02:14:37;102158.63;;;17.89;73.49
78444;BME280;67739;52.986;8.894;2023-08-20T02:17:03;102174.13;;;17.87;73.60
78444;BME280;67739;52.986;8.894;2023-08-20T02:19:29;102173.41;;;17.83;73.57
78444;BME280;67739;52.986;8.894;2023-08-20T02:21:54;102168.25;;;17.79;74.05
78444;BME280;67739;52.986;8.894;2023-08-20T02:24:19;102175.66;;;17.75;73.72
78444;BME280;67739;52.986;8.894;2023-08-20T02:26:45;102168.69;;;17.71;73.70
78444;BME280;67739;52.986;8.894;2023-08-20T02:29:10;102173.41;;;17.67;73.98
78444;BME280;67739;52.986;8.894;2023-08-20T02:31:36;102179.00;;;17.64;73.82
78444;BME280;67739;52.986;8.894;2023-08-20T02:34:01;102173.81;;;17.60;73.95
78444;BME280;67739;52.986;8.894;2023-08-20T02:36:26;102173.00;;;17.58;73.93
78444;BME280;67739;52.986;8.894;2023-08-20T02:38:52;102183.22;;;17.53;74.12
78444;BME280;67739;52.986;8.894;2023-08-20T02:41:17;102188.81;;;17.50;74.06
78444;BME280;67739;52.986;8.894;2023-08-20T02:43:42;102186.28;;;17.47;74.15
78444;BME280;67739;52.986;8.894;2023-08-20T02:46:08;102179.28;;;17.43;74.17
78444;BME280;67739;52.986;8.894;2023-08-20T02:48:33;102174.97;;;17.39;74.25
78444;BME280;67739;52.986;8.894;2023-08-20T02:50:58;102175.13;;;17.36;73.99
78444;BME280;67739;52.986;8.894;2023-08-20T02:53:24;102170.84;;;17.31;74.41
78444;BME280;67739;52.986;8.894;2023-08-20T02:55:49;102182.75;;;17.29;74.50
78444;BME280;67739;52.986;8.894;2023-08-20T02:58:15;102176.59;;;17.25;74.37
78444;BME280;67739;52.986;8.894;2023-08-20T03:00:41;102182.19;;;17.22;74.18
78444;BME280;67739;52.986;8.894;2023-08-20T03:03:07;102175.97;;;17.20;74.29
78444;BME280;67739;52.986;8.894;2023-08-20T03:05:33;102168.09;;;17.16;74.34
78444;BME280;67739;52.986;8.894;2023-08-20T03:07:59;102173.69;;;17.13;74.37
78444;BME280;67739;52.986;8.894;2023-08-20T03:10:30;102177.44;;;17.10;74.47
78444;BME280;67739;52.986;8.894;2023-08-20T03:12:56;102174.94;;;17.06;74.48
78444;BME280;67739;52.986;8.894;2023-08-20T03:15:21;102173.28;;;17.03;74.48
78444;BME280;67739;52.986;8.894;2023-08-20T03:17:47;102178.88;;;17.00;74.65
78444;BME280;67739;52.986;8.894;2023-08-20T03:20:12;102177.28;;;16.96;74.41
78444;BME280;67739;52.986;8.894;2023-08-20T03:22:38;102175.59;;;16.93;74.71
78444;BME280;67739;52.986;8.894;2023-08-20T03:25:04;102174.88;;;16.90;74.44
78444;BME280;67739;52.986;8.894;2023-08-20T03:27:29;102178.75;;;16.86;74.66
78444;BME280;67739;52.986;8.894;2023-08-20T03:29:55;102177.06;;;16.83;74.54
78444;BME280;67739;52.986;8.894;2023-08-20T03:32:20;102181.69;;;16.81;74.71
78444;BME280;67739;52.986;8.894;2023-08-20T03:34:45;102188.13;;;16.79;74.50
78444;BME280;67739;52.986;8.894;2023-08-20T03:37:10;102190.13;;;16.75;74.68
78444;BME280;67739;52.986;8.894;2023-08-20T03:39:36;102187.66;;;16.71;74.59
78444;BME280;67739;52.986;8.894;2023-08-20T03:42:01;102196.81;;;16.68;75.04
78444;BME280;67739;52.986;8.894;2023-08-20T03:44:27;102192.44;;;16.66;74.99
78444;BME280;67739;52.986;8.894;2023-08-20T03:46:52;102198.00;;;16.63;74.96
78444;BME280;67739;52.986;8.894;2023-08-20T03:49:17;102199.88;;;16.60;74.80
78444;BME280;67739;52.986;8.894;2023-08-20T03:51:43;102198.22;;;16.58;75.00
78444;BME280;67739;52.986;8.894;2023-08-20T03:54:08;102197.50;;;16.54;74.89
78444;BME280;67739;52.986;8.894;2023-08-20T03:56:34;102205.78;;;16.51;74.76
78444;BME280;67739;52.986;8.894;2023-08-20T03:58:59;102213.09;;;16.49;74.85
78444;BME280;67739;52.986;8.894;2023-08-20T04:01:25;102213.25;;;16.46;75.30
78444;BME280;67739;52.986;8.894;2023-08-20T04:03:50;102215.19;;;16.44;75.03
78444;BME280;67739;52.986;8.894;2023-08-20T04:06:15;102213.56;;;16.40;75.03
78444;BME280;67739;52.986;8.894;2023-08-20T04:08:41;102223.59;;;16.38;75.10
78444;BME280;67739;52.986;8.894;2023-08-20T04:11:06;102229.09;;;16.37;74.93
78444;BME280;67739;52.986;8.894;2023-08-20T04:13:32;102224.69;;;16.34;75.11
78444;BME280;67739;52.986;8.894;2023-08-20T04:15:57;102227.53;;;16.31;75.33
78444;BME280;67739;52.986;8.894;2023-08-20T04:18:23;102237.59;;;16.29;75.13
78444;BME280;67739;52.986;8.894;2023-08-20T04:20:52;102235.91;;;16.26;75.53
78444;BME280;67739;52.986;8.894;2023-08-20T04:23:18;102226.97;;;16.24;75.23
78444;BME280;67739;52.986;8.894;2023-08-20T04:25:46;102235.25;;;16.21;75.37
78444;BME280;67739;52.986;8.894;2023-08-20T04:28:12;102230.84;;;16.19;75.55
78444;BME280;67739;52.986;8.894;2023-08-20T04:30:38;102239.94;;;16.18;75.25
78444;BME280;67739;52.986;8.894;2023-08-20T04:33:03;102239.22;;;16.14;75.62
78444;BME280;67739;52.986;8.894;2023-08-20T04:35:28;102231.19;;;16.13;75.53
78444;BME280;67739;52.986;8.894;2023-08-20T04:37:54;102240.31;;;16.10;75.26
78444;BME280;67739;52.986;8.894;2023-08-20T04:40:19;102234.97;;;16.09;75.45
78444;BME280;67739;52.986;8.894;2023-08-20T04:42:44;102224.28;;;16.06;75.51
78444;BME280;67739;52.986;8.894;2023-08-20T04:45:10;102224.34;;;16.04;75.59
78444;BME280;67739;52.986;8.894;2023-08-20T04:47:36;102216.31;;;16.03;75.83
78444;BME280;67739;52.986;8.894;2023-08-20T04:50:02;102200.16;;;16.01;75.49
78444;BME280;67739;52.986;8.894;2023-08-20T04:52:27;102194.81;;;16.00;75.71
78444;BME280;67739;52.986;8.894;2023-08-20T04:54:53;102181.34;;;15.98;75.75
78444;BME280;67739;52.986;8.894;2023-08-20T04:57:18;102189.56;;;15.97;75.60
78444;BME280;67739;52.986;8.894;2023-08-20T04:59:43;102186.91;;;15.95;75.80
78444;BME280;67739;52.986;8.894;2023-08-20T05:02:11;102188.81;;;15.93;75.88
78444;BME280;67739;52.986;8.894;2023-08-20T05:04:37;102195.19;;;15.92;75.78
78444;BME280;67739;52.986;8.894;2023-08-20T05:07:02;102192.63;;;15.89;75.64
78444;BME280;67739;52.986;8.894;2023-08-20T05:09:28;102196.19;;;15.89;75.65
78444;BME280;67739;52.986;8.894;2023-08-20T05:11:54;102206.22;;;15.87;75.94
78444;BME280;67739;52.986;8.894;2023-08-20T05:14:19;102217.91;;;15.88;75.84
78444;BME280;67739;52.986;8.894;2023-08-20T05:16:44;102219.84;;;15.86;75.74
78444;BME280;67739;52.986;8.894;2023-08-20T05:19:10;102220.78;;;15.85;76.11
78444;BME280;67739;52.986;8.894;2023-08-20T05:21:35;102220.88;;;15.83;75.83
78444;BME280;67739;52.986;8.894;2023-08-20T05:24:00;102234.41;;;15.83;76.02
78444;BME280;67739;52.986;8.894;2023-08-20T05:26:25;102237.16;;;15.82;75.91
78444;BME280;67739;52.986;8.894;2023-08-20T05:28:51;102239.00;;;15.81;75.76
78444;BME280;67739;52.986;8.894;2023-08-20T05:31:16;102231.75;;;15.82;75.99
78444;BME280;67739;52.986;8.894;2023-08-20T05:33:41;102238.13;;;15.81;75.73
78444;BME280;67739;52.986;8.894;2023-08-20T05:36:07;102248.88;;;15.82;76.20
78444;BME280;67739;52.986;8.894;2023-08-20T05:38:32;102257.00;;;15.82;76.28
78444;BME280;67739;52.986;8.894;2023-08-20T05:40:57;102257.81;;;15.84;76.63
78444;BME280;67739;52.986;8.894;2023-08-20T05:43:22;102249.50;;;15.87;76.55
78444;BME280;67739;52.986;8.894;2023-08-20T05:45:48;102252.00;;;15.92;76.77
78444;BME280;67739;52.986;8.894;2023-08-20T05:48:13;102245.50;;;15.96;76.67
78444;BME280;67739;52.986;8.894;2023-08-20T05:50:38;102252.63;;;15.99;77.03
78444;BME280;67739;52.986;8.894;2023-08-20T05:53:04;102246.97;;;16.03;77.54
78444;BME280;67739;52.986;8.894;2023-08-20T05:55:29;102253.19;;;16.05;77.28
78444;BME280;67739;52.986;8.894;2023-08-20T05:57:54;102254.88;;;16.08;77.16
78444;BME280;67739;52.986;8.894;2023-08-20T06:00:20;102263.66;;;16.13;77.49
78444;BME280;67739;52.986;8.894;2023-08-20T06:02:45;102263.41;;;16.17;77.54
78444;BME280;67739;52.986;8.894;2023-08-20T06:05:10;102263.22;;;16.22;77.44
78444;BME280;67739;52.986;8.894;2023-08-20T06:07:36;102270.25;;;16.26;77.83
78444;BME280;67739;52.986;8.894;2023-08-20T06:10:02;102268.16;;;16.31;77.81
78444;BME280;67739;52.986;8.894;2023-08-20T06:12:27;102259.81;;;16.36;77.92
78444;BME280;67739;52.986;8.894;2023-08-20T06:14:53;102257.84;;;16.39;77.96
78444;BME280;67739;52.986;8.894;2023-08-20T06:17:18;102265.75;;;16.44;77.96
78444;BME280;67739;52.986;8.894;2023-08-20T06:19:44;102262.88;;;16.47;78.03
78444;BME280;67739;52.986;8.894;2023-08-20T06:22:10;102252.69;;;16.52;77.98
78444;BME280;67739;52.986;8.894;2023-08-20T06:24:35;102269.53;;;16.58;78.36
78444;BME280;67739;52.986;8.894;2023-08-20T06:27:01;102253.06;;;16.63;78.09
78444;BME280;67739;52.986;8.894;2023-08-20T06:29:26;102245.59;;;16.68;78.01
78444;BME280;67739;52.986;8.894;2023-08-20T06:31:51;102242.56;;;16.74;78.26
78444;BME280;67739;52.986;8.894;2023-08-20T06:34:17;102235.97;;;16.80;78.42
78444;BME280;67739;52.986;8.894;2023-08-20T06:36:42;102249.28;;;16.84;78.30
78444;BME280;67739;52.986;8.894;2023-08-20T06:39:08;102254.38;;;16.90;78.63
78444;BME280;67739;52.986;8.894;2023-08-20T06:41:34;102263.09;;;16.97;78.96
78444;BME280;67739;52.986;8.894;2023-08-20T06:43:59;102253.66;;;17.04;78.50
78444;BME280;67739;52.986;8.894;2023-08-20T06:46:25;102258.78;;;17.10;78.77
78444;BME280;67739;52.986;8.894;2023-08-20T06:48:50;102266.50;;;17.18;79.22
78444;BME280;67739;52.986;8.894;2023-08-20T06:51:18;102266.09;;;17.25;79.46
78444;BME280;67739;52.986;8.894;2023-08-20T06:53:44;102267.53;;;17.32;79.33
78444;BME280;67739;52.986;8.894;2023-08-20T06:56:09;102269.84;;;17.40;79.57
78444;BME280;67739;52.986;8.894;2023-08-20T06:58:37;102264.00;;;17.48;79.71
78444;BME280;67739;52.986;8.894;2023-08-20T07:01:03;102269.91;;;17.56;79.69
78444;BME280;67739;52.986;8.894;2023-08-20T07:03:37;102257.75;;;17.63;79.83
78444;BME280;67739;52.986;8.894;2023-08-20T07:06:02;102252.03;;;17.69;80.06
78444;BME280;67739;52.986;8.894;2023-08-20T07:08:27;102255.19;;;17.77;80.20
78444;BME280;67739;52.986;8.894;2023-08-20T07:10:53;102254.78;;;17.85;80.21
78444;BME280;67739;52.986;8.894;2023-08-20T07:13:18;102251.63;;;17.92;80.11
78444;BME280;67739;52.986;8.894;2023-08-20T07:15:43;102239.38;;;18.01;80.25
78444;BME280;67739;52.986;8.894;2023-08-20T07:18:09;102249.81;;;18.09;80.33
78444;BME280;67739;52.986;8.894;2023-08-20T07:20:38;102257.44;;;18.18;80.31
78444;BME280;67739;52.986;8.894;2023-08-20T07:23:03;102259.63;;;18.27;80.43
78444;BME280;67739;52.986;8.894;2023-08-20T07:25:29;102252.88;;;18.34;80.56
78444;BME280;67739;52.986;8.894;2023-08-20T07:27:54;102257.78;;;18.43;80.47
78444;BME280;67739;52.986;8.894;2023-08-20T07:30:24;102256.28;;;18.53;80.41
78444;BME280;67739;52.986;8.894;2023-08-20T07:32:50;102260.31;;;18.62;80.43
78444;BME280;67739;52.986;8.894;2023-08-20T07:35:15;102255.25;;;18.71;79.98
78444;BME280;67739;52.986;8.894;2023-08-20T07:37:40;102253.63;;;18.83;80.29
78444;BME280;67739;52.986;8.894;2023-08-20T07:40:06;102259.38;;;18.93;80.09
78444;BME280;67739;52.986;8.894;2023-08-20T07:42:31;102255.16;;;19.03;80.17
78444;BME280;67739;52.986;8.894;2023-08-20T07:44:57;102267.16;;;19.15;80.04
78444;BME280;67739;52.986;8.894;2023-08-20T07:47:22;102271.06;;;19.25;80.01
78444;BME280;67739;52.986;8.894;2023-08-20T07:49:47;102264.16;;;19.33;79.61
78444;BME280;67739;52.986;8.894;2023-08-20T07:52:13;102264.41;;;19.45;79.51
78444;BME280;67739;52.986;8.894;2023-08-20T07:54:38;102267.44;;;19.54;79.09
78444;BME280;67739;52.986;8.894;2023-08-20T07:57:04;102273.09;;;19.65;79.22
78444;BME280;67739;52.986;8.894;2023-08-20T07:59:29;102267.97;;;19.75;78.68
78444;BME280;67739;52.986;8.894;2023-08-20T08:01:54;102269.13;;;19.85;78.31
78444;BME280;67739;52.986;8.894;2023-08-20T08:04:20;102275.72;;;19.95;77.96
78444;BME280;67739;52.986;8.894;2023-08-20T08:06:45;102275.78;;;20.08;77.39
78444;BME280;67739;52.986;8.894;2023-08-20T08:09:31;102274.03;;;20.21;77.14
78444;BME280;67739;52.986;8.894;2023-08-20T08:11:57;102284.91;;;20.35;77.05
78444;BME280;67739;52.986;8.894;2023-08-20T08:14:23;102281.44;;;20.48;77.05
78444;BME280;67739;52.986;8.894;2023-08-20T08:16:49;102283.44;;;20.58;76.58
78444;BME280;67739;52.986;8.894;2023-08-20T08:19:16;102291.66;;;20.71;76.07
78444;BME280;67739;52.986;8.894;2023-08-20T08:21:42;102288.09;;;20.83;75.88
78444;BME280;67739;52.986;8.894;2023-08-20T08:24:08;102280.84;;;20.96;75.92
78444;BME280;67739;52.986;8.894;2023-08-20T08:26:34;102277.16;;;21.10;75.38
78444;BME280;67739;52.986;8.894;2023-08-20T08:29:01;102288.91;;;21.25;75.19
78444;BME280;67739;52.986;8.894;2023-08-20T08:31:26;102277.13;;;21.37;74.71
78444;BME280;67739;52.986;8.894;2023-08-20T08:33:52;102284.25;;;21.52;74.56
78444;BME280;67739;52.986;8.894;2023-08-20T08:36:17;102275.06;;;21.66;74.21
78444;BME280;67739;52.986;8.894;2023-08-20T08:38:44;102279.53;;;21.79;74.26
78444;BME280;67739;52.986;8.894;2023-08-20T08:41:11;102274.84;;;21.94;73.91
78444;BME280;67739;52.986;8.894;2023-08-20T08:43:38;102284.56;;;22.11;73.46
78444;BME280;67739;52.986;8.894;2023-08-20T08:46:06;102283.56;;;22.25;73.56
78444;BME280;67739;52.986;8.894;2023-08-20T08:48:34;102286.91;;;22.41;73.14
78444;BME280;67739;52.986;8.894;2023-08-20T08:51:01;102283.13;;;22.54;72.73
78444;BME280;67739;52.986;8.894;2023-08-20T08:53:27;102279.38;;;22.68;72.37
78444;BME280;67739;52.986;8.894;2023-08-20T08:55:53;102273.53;;;22.85;72.33
78444;BME280;67739;52.986;8.894;2023-08-20T08:58:18;102269.59;;;23.01;72.35
78444;BME280;67739;52.986;8.894;2023-08-20T09:00:43;102272.16;;;23.15;71.56
78444;BME280;67739;52.986;8.894;2023-08-20T09:03:09;102280.16;;;23.29;71.28
78444;BME280;67739;52.986;8.894;2023-08-20T09:05:47;102278.09;;;23.44;70.87
78444;BME280;67739;52.986;8.894;2023-08-20T09:08:26;102274.91;;;23.61;70.83
78444;BME280;67739;52.986;8.894;2023-08-20T09:10:53;102274.69;;;23.75;70.48
78444;BME280;67739;52.986;8.894;2023-08-20T09:13:23;102273.56;;;23.89;69.55
78444;BME280;67739;52.986;8.894;2023-08-20T09:15:53;102274.19;;;24.04;69.35
78444;BME280;67739;52.986;8.894;2023-08-20T09:18:19;102274.06;;;24.16;69.20
78444;BME280;67739;52.986;8.894;2023-08-20T09:20:44;102282.06;;;24.30;68.75
78444;BME280;67739;52.986;8.894;2023-08-20T09:23:13;102276.53;;;24.42;68.23
78444;BME280;67739;52.986;8.894;2023-08-20T09:25:39;102279.13;;;24.54;67.88
78444;BME280;67739;52.986;8.894;2023-08-20T09:28:06;102277.09;;;24.67;67.44
78444;BME280;67739;52.986;8.894;2023-08-20T09:30:31;102272.47;;;24.79;67.19
78444;BME280;67739;52.986;8.894;2023-08-20T09:33:07;102268.69;;;24.91;66.95
78444;BME280;67739;52.986;8.894;2023-08-20T09:35:35;102264.03;;;25.03;66.26
78444;BME280;67739;52.986;8.894;2023-08-20T09:38:01;102262.22;;;25.13;66.13
78444;BME280;67739;52.986;8.894;2023-08-20T09:40:27;102260.28;;;25.25;65.87
78444;BME280;67739;52.986;8.894;2023-08-20T09:42:54;102263.88;;;25.36;65.77
78444;BME280;67739;52.986;8.894;2023-08-20T09:45:20;102264.78;;;25.47;65.04
78444;BME280;67739;52.986;8.894;2023-08-20T09:47:48;102265.84;;;25.55;64.88
78444;BME280;67739;52.986;8.894;2023-08-20T09:50:17;102258.56;;;25.65;64.87
78444;BME280;67739;52.986;8.894;2023-08-20T09:52:48;102270.47;;;25.76;64.54
78444;BME280;67739;52.986;8.894;2023-08-20T09:55:21;102267.50;;;25.88;64.25
78444;BME280;67739;52.986;8.894;2023-08-20T09:57:48;102266.53;;;25.99;64.20
78444;BME280;67739;52.986;8.894;2023-08-20T10:00:14;102265.59;;;26.10;63.95
78444;BME280;67739;52.986;8.894;2023-08-20T10:02:40;102262.00;;;26.19;63.69
78444;BME280;67739;52.986;8.894;2023-08-20T10:05:07;102260.91;;;26.31;63.88
78444;BME280;67739;52.986;8.894;2023-08-20T10:07:34;102261.66;;;26.42;63.71
78444;BME280;67739;52.986;8.894;2023-08-20T10:10:04;102259.50;;;26.56;63.73
78444;BME280;67739;52.986;8.894;2023-08-20T10:12:32;102257.66;;;26.66;63.14
78444;BME280;67739;52.986;8.894;2023-08-20T10:15:00;102259.53;;;26.75;63.03
78444;BME280;67739;52.986;8.894;2023-08-20T10:17:29;102256.06;;;26.83;62.64
78444;BME280;67739;52.986;8.894;2023-08-20T10:19:57;102270.59;;;26.94;62.53
78444;BME280;67739;52.986;8.894;2023-08-20T10:22:22;102252.91;;;27.06;62.85
78444;BME280;67739;52.986;8.894;2023-08-20T10:24:56;102253.47;;;27.20;62.54
78444;BME280;67739;52.986;8.894;2023-08-20T10:27:33;102253.31;;;27.31;62.39
78444;BME280;67739;52.986;8.894;2023-08-20T10:29:59;102262.13;;;27.44;62.65
78444;BME280;67739;52.986;8.894;2023-08-20T10:32:44;102259.81;;;27.59;62.66
78444;BME280;67739;52.986;8.894;2023-08-20T10:35:11;102257.44;;;27.73;62.76
78444;BME280;67739;52.986;8.894;2023-08-20T10:37:37;102258.84;;;27.87;62.80
78444;BME280;67739;52.986;8.894;2023-08-20T10:40:02;102250.06;;;28.01;63.14
78444;BME280;67739;52.986;8.894;2023-08-20T10:42:29;102255.41;;;28.12;63.45
78444;BME280;67739;52.986;8.894;2023-08-20T10:47:24;102262.28;;;28.36;63.03
78444;BME280;67739;52.986;8.894;2023-08-20T10:49:53;102258.44;;;28.46;63.02
78444;BME280;67739;52.986;8.894;2023-08-20T10:52:23;102252.69;;;28.58;63.22
78444;BME280;67739;52.986;8.894;2023-08-20T10:54:51;102253.34;;;28.69;63.51
78444;BME280;67739;52.986;8.894;2023-08-20T10:57:17;102250.38;;;28.80;64.02
78444;BME280;67739;52.986;8.894;2023-08-20T10:59:56;102249.84;;;28.95;63.71
78444;BME280;67739;52.986;8.894;2023-08-20T11:02:22;102246.66;;;29.07;63.76
78444;BME280;67739;52.986;8.894;2023-08-20T11:04:48;102252.63;;;29.20;64.33
78444;BME280;67739;52.986;8.894;2023-08-20T11:07:17;102259.66;;;29.33;64.33
78444;BME280;67739;52.986;8.894;2023-08-20T11:09:43;102257.34;;;29.46;64.21
78444;BME280;67739;52.986;8.894;2023-08-20T11:12:10;102253.28;;;29.58;64.14
78444;BME280;67739;52.986;8.894;2023-08-20T11:14:35;102244.75;;;29.69;64.39
78444;BME280;67739;52.986;8.894;2023-08-20T11:17:00;102245.16;;;29.82;64.79
78444;BME280;67739;52.986;8.894;2023-08-20T11:19:26;102245.72;;;29.94;64.81
78444;BME280;67739;52.986;8.894;2023-08-20T11:21:54;102246.19;;;30.07;65.03
78444;BME280;67739;52.986;8.894;2023-08-20T11:24:19;102252.97;;;30.21;65.73
78444;BME280;67739;52.986;8.894;2023-08-20T11:26:45;102252.34;;;30.35;65.97
78444;BME280;67739;52.986;8.894;2023-08-20T11:29:16;102256.34;;;30.49;66.23
78444;BME280;67739;52.986;8.894;2023-08-20T11:31:46;102259.53;;;30.62;66.17
78444;BME280;67739;52.986;8.894;2023-08-20T11:34:11;102253.50;;;30.75;66.37
78444;BME280;67739;52.986;8.894;2023-08-20T11:36:38;102253.03;;;30.87;66.71
78444;BME280;67739;52.986;8.894;2023-08-20T11:39:05;102251.81;;;30.98;66.15
78444;BME280;67739;52.986;8.894;2023-08-20T11:41:31;102262.91;;;31.06;65.67
78444;BME280;67739;52.986;8.894;2023-08-20T11:43:56;102245.44;;;31.14;65.57
78444;BME280;67739;52.986;8.894;2023-08-20T11:46:23;102244.41;;;31.23;66.21
78444;BME280;67739;52.986;8.894;2023-08-20T11:49:27;102246.81;;;31.34;66.55
78444;BME280;67739;52.986;8.894;2023-08-20T11:51:56;102247.69;;;31.43;66.24
78444;BME280;67739;52.986;8.894;2023-08-20T11:54:22;102255.97;;;31.51;65.93
78444;BME280;67739;52.986;8.894;2023-08-20T11:56:52;102253.56;;;31.56;66.06
78444;BME280;67739;52.986;8.894;2023-08-20T11:59:18;102245.19;;;31.64;66.20
78444;BME280;67739;52.986;8.894;2023-08-20T12:01:50;102252.50;;;31.73;66.88
78444;BME280;67739;52.986;8.894;2023-08-20T12:04:16;102252.13;;;31.84;66.86
78444;BME280;67739;52.986;8.894;2023-08-20T12:06:41;102246.53;;;31.92;66.64
78444;BME280;67739;52.986;8.894;2023-08-20T12:09:19;102242.50;;;32.03;66.84
78444;BME280;67739;52.986;8.894;2023-08-20T12:11:54;102250.47;;;32.14;66.98
78444;BME280;67739;52.986;8.894;2023-08-20T12:14:21;102243.66;;;32.25;67.14
78444;BME280;67739;52.986;8.894;2023-08-20T12:16:47;102250.91;;;32.34;67.57
78444;BME280;67739;52.986;8.894;2023-08-20T12:19:13;102244.09;;;32.45;67.73
78444;BME280;67739;52.986;8.894;2023-08-20T12:21:41;102238.13;;;32.56;67.97
78444;BME280;67739;52.986;8.894;2023-08-20T12:24:09;102235.97;;;32.66;68.30
78444;BME280;67739;52.986;8.894;2023-08-20T12:26:35;102234.69;;;32.77;68.67
78444;BME280;67739;52.986;8.894;2023-08-20T12:29:00;102236.38;;;32.86;68.78
78444;BME280;67739;52.986;8.894;2023-08-20T12:31:25;102236.13;;;32.95;68.88
78444;BME280;67739;52.986;8.894;2023-08-20T12:33:51;102232.03;;;33.06;68.82
78444;BME280;67739;52.986;8.894;2023-08-20T12:36:16;102226.41;;;33.14;68.74
78444;BME280;67739;52.986;8.894;2023-08-20T12:38:41;102223.34;;;33.24;69.17
78444;BME280;67739;52.986;8.894;2023-08-20T12:41:07;102220.56;;;33.32;69.14
78444;BME280;67739;52.986;8.894;2023-08-20T12:43:32;102229.66;;;33.41;69.12
78444;BME280;67739;52.986;8.894;2023-08-20T12:45:58;102230.63;;;33.48;69.45
78444;BME280;67739;52.986;8.894;2023-08-20T12:48:23;102223.25;;;33.55;69.25
78444;BME280;67739;52.986;8.894;2023-08-20T12:50:48;102227.41;;;33.59;68.26
78444;BME280;67739;52.986;8.894;2023-08-20T12:53:14;102233.22;;;33.64;67.19
78444;BME280;67739;52.986;8.894;2023-08-20T12:55:39;102224.13;;;33.70;66.96
78444;BME280;67739;52.986;8.894;2023-08-20T12:58:05;102220.63;;;33.76;67.12